Time,TemperatureF,DewpointF,PressureIn,WindDirection,WindDirectionDegrees,WindSpeedMPH,WindSpeedGustMPH,Humidity,HourlyPrecipIn,Conditions,Clouds,dailyrainin,SoftwareType,DateUTC
2013-10-19 00:10:00,73.0,65.0,29.96,ESE,106,0.0,-999.0,77,-99.99,,,0.00,weatherlink.com 1.10,2013-10-19 04:10:00,
2013-10-19 00:25:00,72.7,65.0,29.97,ESE,106,0.0,-999.0,77,-99.99,,,0.00,weatherlink.com 1.10,2013-10-19 04:25:00,
2013-10-19 00:40:00,72.3,65.0,29.96,ESE,106,0.0,-999.0,78,-99.99,,,0.00,weatherlink.com 1.10,2013-10-19 04:40:00,
2013-10-19 00:55:00,72.0,65.0,29.96,ESE,106,0.0,-999.0,79,-99.99,,,0.00,weatherlink.com 1.10,2013-10-19 04:55:00,
2013-10-19 01:10:00,72.0,65.0,29.95,ESE,106,0.0,-999.0,79,-99.99,,,0.00,weatherlink.com 1.10,2013-10-19 05:10:00,
2013-10-19 01:25:00,72.0,65.0,29.95,ESE,106,0.0,-999.0,79,-99.99,,,0.00,weatherlink.com 1.10,2013-10-19 05:25:00,
2013-10-19 01:40:00,72.1,66.0,29.95,ESE,106,0.0,-999.0,80,-99.99,,,0.00,weatherlink.com 1.10,2013-10-19 05:40:00,
2013-10-19 01:55:00,72.1,66.0,29.94,ESE,106,0.0,-999.0,80,-99.99,,,0.00,weatherlink.com 1.10,2013-10-19 05:55:00,
2013-10-19 02:10:00,72.3,66.0,29.94,ESE,106,0.0,-999.0,80,-99.99,,,0.00,weatherlink.com 1.10,2013-10-19 06:10:00,
2013-10-19 02:25:00,72.3,66.0,29.94,ESE,106,0.0,-999.0,80,-99.99,,,0.00,weatherlink.com 1.10,2013-10-19 06:25:00,
2013-10-19 02:40:00,72.3,66.0,29.94,ESE,106,0.0,-999.0,81,-99.99,,,0.00,weatherlink.com 1.10,2013-10-19 06:40:00,
2013-10-19 02:55:00,72.5,66.0,29.93,ESE,106,0.0,-999.0,81,-99.99,,,0.00,weatherlink.com 1.10,2013-10-19 06:55:00,
2013-10-19 03:10:00,72.7,67.0,29.93,ESE,106,0.0,-999.0,81,-99.99,,,0.00,weatherlink.com 1.10,2013-10-19 07:10:00,
2013-10-19 03:25:00,72.5,66.0,29.94,ESE,106,0.0,-999.0,81,-99.99,,,0.00,weatherlink.com 1.10,2013-10-19 07:25:00,
2013-10-19 03:40:00,72.8,67.0,29.94,ESE,106,0.0,-999.0,82,-99.99,,,0.00,weatherlink.com 1.10,2013-10-19 07:40:00,
2013-10-19 03:55:00,72.8,67.0,29.94,ESE,106,0.0,-999.0,82,-99.99,,,0.00,weatherlink.com 1.10,2013-10-19 07:55:00,
2013-10-19 04:10:00,72.8,67.0,29.93,ESE,106,0.0,-999.0,82,-99.99,,,0.00,weatherlink.com 1.10,2013-10-19 08:10:00,
2013-10-19 04:26:00,73.0,67.0,29.92,ESE,106,0.0,-999.0,82,-99.99,,,0.00,weatherlink.com 1.10,2013-10-19 08:26:00,
2013-10-19 04:41:00,73.7,68.0,29.92,East,91,0.0,-999.0,83,-99.99,,,0.13,weatherlink.com 1.10,2013-10-19 08:41:00,
2013-10-19 04:56:00,74.0,69.0,29.92,ENE,75,0.0,-999.0,83,-99.99,,,0.13,weatherlink.com 1.10,2013-10-19 08:56:00,
2013-10-19 05:11:00,73.9,69.0,29.92,ENE,75,0.0,-999.0,83,-99.99,,,0.13,weatherlink.com 1.10,2013-10-19 09:11:00,
2013-10-19 05:26:00,73.9,69.0,29.92,ENE,75,0.0,-999.0,83,-99.99,,,0.13,weatherlink.com 1.10,2013-10-19 09:26:00,
2013-10-19 05:41:00,74.2,69.0,29.92,ENE,75,0.0,-999.0,84,-99.99,,,0.13,weatherlink.com 1.10,2013-10-19 09:41:00,
2013-10-19 05:56:00,74.6,70.0,29.92,ENE,75,0.0,-999.0,84,-99.99,,,0.13,weatherlink.com 1.10,2013-10-19 09:56:00,
2013-10-19 06:11:00,74.7,70.0,29.92,SE,131,0.0,-999.0,84,-99.99,,,0.13,weatherlink.com 1.10,2013-10-19 10:11:00,
2013-10-19 06:26:00,74.7,70.0,29.92,ESE,114,1.0,-999.0,84,-99.99,,,0.13,weatherlink.com 1.10,2013-10-19 10:26:00,
2013-10-19 06:41:00,74.6,70.0,29.92,SE,141,0.0,-999.0,84,-99.99,,,0.13,weatherlink.com 1.10,2013-10-19 10:41:00,
2013-10-19 06:56:00,74.4,69.0,29.92,SE,141,0.0,-999.0,84,-99.99,,,0.13,weatherlink.com 1.10,2013-10-19 10:56:00,
2013-10-19 07:11:00,74.0,69.0,29.92,SE,135,0.0,-999.0,84,-99.99,,,0.13,weatherlink.com 1.10,2013-10-19 11:11:00,
2013-10-19 07:26:00,73.7,69.0,29.92,SE,131,0.0,-999.0,84,-99.99,,,0.13,weatherlink.com 1.10,2013-10-19 11:26:00,
2013-10-19 07:41:00,73.3,68.0,29.92,ESE,121,2.0,-999.0,84,-99.99,,,0.13,weatherlink.com 1.10,2013-10-19 11:41:00,
2013-10-19 07:56:00,73.0,68.0,29.92,SE,126,0.0,-999.0,84,-99.99,,,0.13,weatherlink.com 1.10,2013-10-19 11:56:00,
2013-10-19 08:11:00,72.8,68.0,29.93,ESE,114,0.0,-999.0,84,-99.99,,,0.13,weatherlink.com 1.10,2013-10-19 12:11:00,
2013-10-19 08:26:00,72.8,68.0,29.94,East,89,0.0,-999.0,84,-99.99,,,0.13,weatherlink.com 1.10,2013-10-19 12:26:00,
2013-10-19 08:41:00,72.8,68.0,29.94,East,83,0.0,-999.0,84,-99.99,,,0.13,weatherlink.com 1.10,2013-10-19 12:41:00,
2013-10-19 08:56:00,73.0,68.0,29.95,ESE,122,0.0,-999.0,84,-99.99,,,0.13,weatherlink.com 1.10,2013-10-19 12:56:00,
2013-10-19 09:11:00,72.7,68.0,29.95,SSW,209,1.0,-999.0,84,-99.99,,,0.13,weatherlink.com 1.10,2013-10-19 13:11:00,
2013-10-19 09:26:00,72.8,68.0,29.96,NE,39,0.0,-999.0,84,-99.99,,,0.13,weatherlink.com 1.10,2013-10-19 13:26:00,
2013-10-19 09:41:00,73.2,68.0,29.96,NE,40,0.0,-999.0,84,-99.99,,,0.13,weatherlink.com 1.10,2013-10-19 13:41:00,
2013-10-19 09:56:00,73.5,68.0,29.96,NE,45,0.0,-999.0,83,-99.99,,,0.13,weatherlink.com 1.10,2013-10-19 13:56:00,
2013-10-19 10:11:00,73.7,68.0,29.96,NE,45,0.0,-999.0,83,-99.99,,,0.13,weatherlink.com 1.10,2013-10-19 14:11:00,
2013-10-19 10:26:00,73.5,68.0,29.97,NE,45,0.0,-999.0,82,-99.99,,,0.13,weatherlink.com 1.10,2013-10-19 14:26:00,
2013-10-19 10:41:00,73.7,68.0,29.97,SSW,196,0.0,-999.0,82,-99.99,,,0.13,weatherlink.com 1.10,2013-10-19 14:41:00,
2013-10-19 10:56:00,74.0,68.0,29.96,SSW,193,0.0,-999.0,81,-99.99,,,0.13,weatherlink.com 1.10,2013-10-19 14:56:00,
2013-10-19 11:11:00,74.4,68.0,29.96,SSW,193,0.0,-999.0,80,-99.99,,,0.13,weatherlink.com 1.10,2013-10-19 15:11:00,
2013-10-19 11:26:00,74.7,68.0,29.96,South,187,0.0,-999.0,80,-99.99,,,0.13,weatherlink.com 1.10,2013-10-19 15:26:00,
2013-10-19 11:41:00,75.1,68.0,29.95,ENE,73,0.0,-999.0,79,-99.99,,,0.13,weatherlink.com 1.10,2013-10-19 15:41:00,
2013-10-19 11:56:00,75.6,68.0,29.95,ENE,73,1.0,-999.0,77,-99.99,,,0.13,weatherlink.com 1.10,2013-10-19 15:56:00,
2013-10-19 12:11:00,76.1,68.0,29.95,ESE,106,0.0,-999.0,77,-99.99,,,0.13,weatherlink.com 1.10,2013-10-19 16:11:00,
2013-10-19 12:26:00,76.3,68.0,29.95,East,98,0.0,-999.0,75,-99.99,,,0.13,weatherlink.com 1.10,2013-10-19 16:26:00,
2013-10-19 12:41:00,76.8,68.0,29.94,East,99,0.0,-999.0,73,-99.99,,,0.13,weatherlink.com 1.10,2013-10-19 16:41:00,
2013-10-19 12:56:00,78.1,68.0,29.94,East,99,0.0,-999.0,71,-99.99,,,0.13,weatherlink.com 1.10,2013-10-19 16:56:00,
2013-10-19 13:11:00,78.5,68.0,29.94,East,97,0.0,-999.0,70,-99.99,,,0.13,weatherlink.com 1.10,2013-10-19 17:11:00,
2013-10-19 13:26:00,78.5,68.0,29.93,East,97,0.0,-999.0,69,-99.99,,,0.13,weatherlink.com 1.10,2013-10-19 17:26:00,
2013-10-19 13:41:00,78.6,68.0,29.92,East,97,0.0,-999.0,69,-99.99,,,0.13,weatherlink.com 1.10,2013-10-19 17:41:00,
2013-10-19 13:56:00,80.9,68.0,29.91,East,91,2.0,-999.0,65,-99.99,,,0.13,weatherlink.com 1.10,2013-10-19 17:56:00,
2013-10-19 14:11:00,81.8,67.0,29.91,SSW,193,0.0,-999.0,62,-99.99,,,0.13,weatherlink.com 1.10,2013-10-19 18:11:00,
2013-10-19 14:26:00,81.6,66.0,29.91,ENE,71,0.0,-999.0,60,-99.99,,,0.13,weatherlink.com 1.10,2013-10-19 18:26:00,
2013-10-19 14:41:00,81.4,66.0,29.90,East,83,0.0,-999.0,60,-99.99,,,0.13,weatherlink.com 1.10,2013-10-19 18:41:00,
2013-10-19 14:56:00,80.9,67.0,29.90,East,83,0.0,-999.0,63,-99.99,,,0.13,weatherlink.com 1.10,2013-10-19 18:56:00,
2013-10-19 15:11:00,81.8,68.0,29.90,ENE,74,0.0,-999.0,63,-99.99,,,0.13,weatherlink.com 1.10,2013-10-19 19:11:00,
2013-10-19 15:26:00,82.6,68.0,29.89,ENE,74,0.0,-999.0,62,-99.99,,,0.13,weatherlink.com 1.10,2013-10-19 19:26:00,
2013-10-19 15:41:00,83.6,68.0,29.89,East,83,0.0,-999.0,60,-99.99,,,0.13,weatherlink.com 1.10,2013-10-19 19:41:00,
2013-10-19 15:56:00,84.9,68.0,29.89,East,83,1.0,-999.0,57,-99.99,,,0.13,weatherlink.com 1.10,2013-10-19 19:56:00,
2013-10-19 16:11:00,85.1,68.0,29.89,East,81,2.0,-999.0,57,-99.99,,,0.13,weatherlink.com 1.10,2013-10-19 20:11:00,
2013-10-19 16:26:00,83.0,68.0,29.89,ENE,78,0.0,-999.0,60,-99.99,,,0.13,weatherlink.com 1.10,2013-10-19 20:26:00,
2013-10-19 16:41:00,80.9,68.0,29.89,NNE,26,0.0,-999.0,64,-99.99,,,0.13,weatherlink.com 1.10,2013-10-19 20:41:00,
2013-10-19 16:56:00,80.1,67.0,29.89,ENE,64,0.0,-999.0,65,-99.99,,,0.13,weatherlink.com 1.10,2013-10-19 20:56:00,
2013-10-19 17:11:00,79.8,67.0,29.88,ENE,64,0.0,-999.0,66,-99.99,,,0.13,weatherlink.com 1.10,2013-10-19 21:11:00,
2013-10-19 17:26:00,79.2,67.0,29.88,ENE,65,0.0,-999.0,67,-99.99,,,0.13,weatherlink.com 1.10,2013-10-19 21:26:00,
2013-10-19 17:41:00,78.6,68.0,29.88,ENE,65,0.0,-999.0,69,-99.99,,,0.13,weatherlink.com 1.10,2013-10-19 21:41:00,
2013-10-19 17:56:00,78.1,68.0,29.89,ENE,65,0.0,-999.0,70,-99.99,,,0.13,weatherlink.com 1.10,2013-10-19 21:56:00,
2013-10-19 18:11:00,77.7,68.0,29.90,ENE,65,0.0,-999.0,71,-99.99,,,0.13,weatherlink.com 1.10,2013-10-19 22:11:00,
2013-10-19 18:26:00,77.4,68.0,29.90,ENE,65,0.0,-999.0,72,-99.99,,,0.13,weatherlink.com 1.10,2013-10-19 22:26:00,
2013-10-19 18:41:00,77.0,68.0,29.90,ENE,65,0.0,-999.0,73,-99.99,,,0.13,weatherlink.com 1.10,2013-10-19 22:41:00,
2013-10-19 18:56:00,74.6,64.0,29.91,ESE,103,0.0,-999.0,70,-99.99,,,0.14,weatherlink.com 1.10,2013-10-19 22:56:00,
2013-10-19 19:11:00,73.3,64.0,29.92,ESE,103,0.0,-999.0,72,-99.99,,,0.14,weatherlink.com 1.10,2013-10-19 23:11:00,
2013-10-19 19:26:00,72.7,64.0,29.92,ESE,103,0.0,-999.0,74,-99.99,,,0.14,weatherlink.com 1.10,2013-10-19 23:26:00,
2013-10-19 19:41:00,72.5,64.0,29.91,ESE,103,0.0,-999.0,75,-99.99,,,0.14,weatherlink.com 1.10,2013-10-19 23:41:00,
2013-10-19 19:56:00,72.1,64.0,29.91,ESE,103,0.0,-999.0,75,-99.99,,,0.14,weatherlink.com 1.10,2013-10-19 23:56:00,
2013-10-19 20:11:00,71.8,64.0,29.91,ESE,103,0.0,-999.0,76,-99.99,,,0.14,weatherlink.com 1.10,2013-10-20 00:11:00,
2013-10-19 20:26:00,71.6,64.0,29.92,ESE,103,0.0,-999.0,77,-99.99,,,0.14,weatherlink.com 1.10,2013-10-20 00:26:00,
2013-10-19 20:41:00,71.3,64.0,29.92,ESE,103,0.0,-999.0,77,-99.99,,,0.14,weatherlink.com 1.10,2013-10-20 00:41:00,
2013-10-19 20:56:00,70.9,64.0,29.93,ESE,103,0.0,-999.0,78,-99.99,,,0.14,weatherlink.com 1.10,2013-10-20 00:56:00,
2013-10-19 21:12:00,70.8,64.0,29.92,ESE,103,0.0,-999.0,78,-99.99,,,0.14,weatherlink.com 1.10,2013-10-20 01:12:00,
2013-10-19 21:26:00,70.4,64.0,29.92,ESE,103,0.0,-999.0,79,-99.99,,,0.14,weatherlink.com 1.10,2013-10-20 01:26:00,
2013-10-19 21:42:00,70.4,64.0,29.93,ESE,103,0.0,-999.0,79,-99.99,,,0.14,weatherlink.com 1.10,2013-10-20 01:42:00,
2013-10-19 21:57:00,70.4,64.0,29.93,ESE,103,0.0,-999.0,79,-99.99,,,0.14,weatherlink.com 1.10,2013-10-20 01:57:00,
2013-10-19 22:12:00,70.4,64.0,29.94,ESE,103,0.0,-999.0,80,-99.99,,,0.14,weatherlink.com 1.10,2013-10-20 02:12:00,
2013-10-19 22:27:00,69.9,63.0,29.93,ESE,103,1.0,-999.0,79,-99.99,,,0.14,weatherlink.com 1.10,2013-10-20 02:27:00,
2013-10-19 22:42:00,68.6,61.0,29.94,SSW,205,4.0,-999.0,77,-99.99,,,0.14,weatherlink.com 1.10,2013-10-20 02:42:00,
2013-10-19 22:57:00,67.8,59.0,29.94,SSE,166,0.0,-999.0,74,-99.99,,,0.14,weatherlink.com 1.10,2013-10-20 02:57:00,
2013-10-19 23:12:00,67.1,58.0,29.94,WSW,238,0.0,-999.0,72,-99.99,,,0.14,weatherlink.com 1.10,2013-10-20 03:12:00,
2013-10-19 23:27:00,67.1,58.0,29.94,South,170,0.0,-999.0,72,-99.99,,,0.14,weatherlink.com 1.10,2013-10-20 03:27:00,
2013-10-19 23:42:00,67.3,58.0,29.95,South,172,0.0,-999.0,72,-99.99,,,0.14,weatherlink.com 1.10,2013-10-20 03:42:00,
2013-10-19 23:57:00,67.1,57.0,29.94,SSW,197,0.0,-999.0,71,-99.99,,,0.14,weatherlink.com 1.10,2013-10-20 03:57:00,